createdAt,value
2023-05-16T00:00:02.061Z,556.40
2023-05-16T00:01:02.094Z,551.00
2023-05-16T00:02:02.066Z,551.30
2023-05-16T00:03:02.111Z,548.20
2023-05-16T00:04:02.065Z,592.30
2023-05-16T00:05:02.049Z,574.10
2023-05-16T00:06:02.032Z,557.30
2023-05-16T00:07:01.992Z,555.60
2023-05-16T00:08:01.989Z,552.80
2023-05-16T00:09:01.973Z,550.90
2023-05-16T00:10:02.031Z,538.90
2023-05-16T00:11:01.975Z,535.40
2023-05-16T00:12:01.923Z,557.30
2023-05-16T00:13:02.151Z,550.80
2023-05-16T00:14:01.906Z,512.00
2023-05-16T00:15:01.943Z,549.90
2023-05-16T00:16:01.872Z,525.60
2023-05-16T00:17:01.995Z,512.10
2023-05-16T00:18:02.025Z,634.40
2023-05-16T00:19:01.911Z,578.90
2023-05-16T00:20:01.861Z,572.90
2023-05-16T00:21:01.822Z,676.50
2023-05-16T00:22:01.817Z,540.90
2023-05-16T00:23:01.818Z,571.70
2023-05-16T00:24:01.816Z,609.60
2023-05-16T00:25:01.786Z,555.60
2023-05-16T00:26:01.752Z,560.00
2023-05-16T00:27:01.752Z,537.80
2023-05-16T00:28:01.754Z,532.50
2023-05-16T00:29:01.764Z,578.20
2023-05-16T00:30:01.712Z,527.60
2023-05-16T00:31:01.718Z,540.10
2023-05-16T00:32:01.713Z,525.90
2023-05-16T00:33:01.782Z,541.50
2023-05-16T00:34:01.764Z,546.30
2023-05-16T00:35:01.675Z,553.40
2023-05-16T00:36:01.653Z,532.60
2023-05-16T00:37:01.663Z,581.00
2023-05-16T00:38:01.704Z,539.90
2023-05-16T00:39:01.627Z,554.40
2023-05-16T00:40:01.625Z,582.70
2023-05-16T00:41:01.620Z,542.60
2023-05-16T00:42:01.616Z,559.20
2023-05-16T00:43:01.601Z,610.60
2023-05-16T00:44:01.558Z,549.50
2023-05-16T00:45:01.547Z,552.80
2023-05-16T00:46:01.576Z,600.60
2023-05-16T00:47:01.560Z,594.00
2023-05-16T00:48:01.541Z,570.10
2023-05-16T00:49:01.526Z,560.40
2023-05-16T00:50:01.533Z,573.10
2023-05-16T00:51:01.492Z,560.00
2023-05-16T00:52:01.509Z,601.50
2023-05-16T00:53:01.469Z,571.70
2023-05-16T00:54:01.492Z,650.20
2023-05-16T00:55:01.481Z,524.40
2023-05-16T00:56:01.420Z,538.40
2023-05-16T00:57:01.481Z,652.70
2023-05-16T00:58:01.449Z,495.40
2023-05-16T00:59:01.417Z,528.50
2023-05-16T01:00:01.386Z,638.40
2023-05-16T01:01:01.429Z,629.60
2023-05-16T01:02:01.484Z,639.50
2023-05-16T01:03:01.476Z,634.90
2023-05-16T01:04:01.581Z,564.40
2023-05-16T01:05:01.345Z,663.30
2023-05-16T01:06:01.356Z,598.60
2023-05-16T01:07:01.285Z,617.30
2023-05-16T01:08:01.311Z,659.60
2023-05-16T01:09:01.306Z,645.40
2023-05-16T01:10:01.284Z,660.30
2023-05-16T01:11:01.319Z,653.50
2023-05-16T01:12:01.274Z,640.50
2023-05-16T01:13:01.247Z,637.30
2023-05-16T01:14:01.223Z,685.30
2023-05-16T01:15:01.264Z,675.70
2023-05-16T01:16:01.273Z,659.20
2023-05-16T01:17:01.182Z,660.20
2023-05-16T01:18:01.209Z,689.20
2023-05-16T01:19:01.233Z,690.00
2023-05-16T01:20:01.227Z,694.70
2023-05-16T01:21:01.150Z,677.00
2023-05-16T01:22:01.152Z,688.70
2023-05-16T01:23:01.132Z,693.10
2023-05-16T01:24:01.127Z,691.80
2023-05-16T01:25:01.162Z,698.10
2023-05-16T01:26:01.114Z,708.40
2023-05-16T01:27:01.089Z,710.10
2023-05-16T01:28:01.091Z,712.10
2023-05-16T01:29:01.090Z,693.20
2023-05-16T01:30:01.084Z,702.60
2023-05-16T01:31:01.138Z,706.40
2023-05-16T01:32:01.128Z,712.30
2023-05-16T01:33:01.096Z,703.90
2023-05-16T01:34:01.028Z,707.50
2023-05-16T01:35:00.997Z,714.20
2023-05-16T01:36:00.997Z,726.80
2023-05-16T01:37:00.972Z,717.40
2023-05-16T01:38:00.987Z,719.10
2023-05-16T01:39:00.992Z,708.80
2023-05-16T01:40:00.948Z,717.20
2023-05-16T01:41:00.929Z,733.10
2023-05-16T01:42:00.926Z,713.10
2023-05-16T01:43:00.937Z,706.40
2023-05-16T01:44:00.943Z,705.30
2023-05-16T01:45:00.886Z,685.70
2023-05-16T01:46:00.857Z,690.30
2023-05-16T01:47:00.924Z,682.70
2023-05-16T01:48:00.906Z,663.50
2023-05-16T01:49:00.865Z,648.70
2023-05-16T01:50:00.833Z,640.70
2023-05-16T01:51:00.839Z,630.70
2023-05-16T01:52:00.835Z,636.00
2023-05-16T01:53:00.832Z,619.90
2023-05-16T01:54:00.793Z,615.00
2023-05-16T01:55:00.804Z,594.00
2023-05-16T01:56:00.752Z,576.80
2023-05-16T01:57:00.745Z,586.90
2023-05-16T01:58:00.770Z,578.50
2023-05-16T01:59:00.739Z,544.70
2023-05-16T02:00:00.740Z,543.00
2023-05-16T02:01:00.724Z,523.90
2023-05-16T02:02:00.736Z,521.10
2023-05-16T02:03:00.749Z,519.40
2023-05-16T02:04:00.726Z,532.10
2023-05-16T02:05:00.667Z,530.70
2023-05-16T02:06:00.652Z,542.20
2023-05-16T02:07:00.663Z,581.20
2023-05-16T02:08:00.622Z,606.90
2023-05-16T02:09:00.592Z,600.60
2023-05-16T02:10:00.615Z,600.10
2023-05-16T02:11:00.583Z,609.90
2023-05-16T02:12:00.624Z,628.80
2023-05-16T02:13:00.589Z,670.90
2023-05-16T02:14:00.553Z,678.20
2023-05-16T02:15:00.555Z,686.10
2023-05-16T02:16:00.578Z,680.20
2023-05-16T02:17:00.634Z,670.80
2023-05-16T02:18:00.578Z,683.10
2023-05-16T02:19:00.520Z,669.30
2023-05-16T02:20:00.492Z,679.90
2023-05-16T02:21:00.502Z,641.50
2023-05-16T02:22:00.451Z,632.70
2023-05-16T02:23:00.441Z,602.90
2023-05-16T02:24:00.444Z,623.40
2023-05-16T02:25:00.430Z,614.60
2023-05-16T02:26:00.470Z,611.20
2023-05-16T02:27:00.404Z,615.10
2023-05-16T02:28:00.406Z,604.90
2023-05-16T02:29:00.380Z,596.70
2023-05-16T02:30:00.454Z,601.00
2023-05-16T02:31:00.427Z,663.50
2023-05-16T02:32:00.362Z,675.50
2023-05-16T02:33:00.413Z,676.70
2023-05-16T02:34:00.322Z,675.00
2023-05-16T02:35:00.354Z,684.10
2023-05-16T02:36:00.298Z,684.30
2023-05-16T02:37:00.277Z,688.30
2023-05-16T02:38:00.284Z,674.00
2023-05-16T02:39:00.264Z,645.70
2023-05-16T02:40:00.302Z,690.90
2023-05-16T02:41:00.243Z,672.40
2023-05-16T02:42:00.231Z,654.00
2023-05-16T02:43:00.217Z,635.00
2023-05-16T02:44:00.212Z,681.90
2023-05-16T02:45:00.272Z,661.60
2023-05-16T02:46:00.225Z,627.70
2023-05-16T02:47:00.184Z,665.20
2023-05-16T02:48:00.222Z,645.90
2023-05-16T02:49:00.168Z,637.60
2023-05-16T02:50:00.177Z,622.00
2023-05-16T02:51:00.132Z,644.90
2023-05-16T02:52:00.138Z,644.80
2023-05-16T02:53:00.137Z,639.80
2023-05-16T02:54:00.159Z,632.80
2023-05-16T02:55:16.840Z,594.00
2023-05-16T02:56:01.090Z,585.40
2023-05-16T02:57:00.063Z,563.70
2023-05-16T02:58:00.122Z,575.40
2023-05-16T02:59:00.077Z,555.60
2023-05-16T03:00:00.047Z,544.90
2023-05-16T03:01:00.028Z,541.20
2023-05-16T03:02:00.085Z,546.40
2023-05-16T03:03:00.106Z,549.10
2023-05-16T03:04:00.085Z,566.50
2023-05-16T03:05:00.020Z,586.70
2023-05-16T03:05:59.976Z,579.80
2023-05-16T03:06:59.966Z,585.90
2023-05-16T03:07:59.975Z,616.40
2023-05-16T03:08:59.935Z,591.30
2023-05-16T03:09:59.945Z,578.20
2023-05-16T03:10:59.918Z,577.60
2023-05-16T03:11:59.914Z,583.00
2023-05-16T03:12:59.936Z,571.40
2023-05-16T03:14:01.675Z,537.30
2023-05-16T03:14:59.864Z,533.20
2023-05-16T03:15:59.900Z,531.40
2023-05-16T03:16:59.873Z,520.80
2023-05-16T03:17:59.932Z,527.70
2023-05-16T03:18:59.892Z,521.40
2023-05-16T03:19:59.806Z,521.30
2023-05-16T03:20:59.770Z,530.70
2023-05-16T03:21:59.821Z,529.40
2023-05-16T03:22:59.782Z,513.70
2023-05-16T03:23:59.806Z,514.40
2023-05-16T03:24:59.754Z,528.00
2023-05-16T03:25:59.736Z,541.80
2023-05-16T03:26:59.759Z,560.80
2023-05-16T03:27:59.720Z,559.80
2023-05-16T03:28:59.703Z,568.30
2023-05-16T03:29:59.704Z,321.00
2023-05-16T03:30:59.717Z,356.90
2023-05-16T03:31:59.761Z,338.00
2023-05-16T03:32:59.690Z,298.70
2023-05-16T03:33:59.652Z,317.40
2023-05-16T03:34:59.644Z,343.00
2023-05-16T03:35:59.673Z,268.00
2023-05-16T03:36:59.619Z,291.70
2023-05-16T03:37:59.619Z,267.90
2023-05-16T03:38:59.605Z,286.20
2023-05-16T03:39:59.608Z,523.70
2023-05-16T03:40:59.613Z,271.80
2023-05-16T03:41:59.590Z,379.80
2023-05-16T03:42:59.551Z,292.60
2023-05-16T03:43:59.521Z,337.10
2023-05-16T03:44:59.585Z,289.40
2023-05-16T03:45:59.590Z,302.90
2023-05-16T03:46:59.504Z,508.80
2023-05-16T03:47:59.523Z,302.90
2023-05-16T03:48:59.481Z,292.40
2023-05-16T03:49:59.538Z,571.80
2023-05-16T03:50:59.467Z,275.20
2023-05-16T03:51:59.445Z,266.50
2023-05-16T03:52:59.442Z,337.80
2023-05-16T03:53:59.417Z,294.20
2023-05-16T03:54:59.450Z,597.70
2023-05-16T03:55:59.427Z,393.70
2023-05-16T03:56:59.393Z,300.40
2023-05-16T03:57:59.380Z,332.70
2023-05-16T03:58:59.398Z,351.00
2023-05-16T03:59:59.387Z,343.20
2023-05-16T04:00:59.343Z,326.20
2023-05-16T04:01:59.373Z,322.10
2023-05-16T04:02:59.336Z,309.10
2023-05-16T04:03:59.353Z,570.50
2023-05-16T04:04:59.307Z,263.10
2023-05-16T04:05:59.350Z,274.90
2023-05-16T04:06:59.269Z,252.70
2023-05-16T04:07:59.277Z,235.90
2023-05-16T04:08:59.289Z,243.20
2023-05-16T04:09:59.261Z,272.00
2023-05-16T04:10:59.238Z,280.80
2023-05-16T04:11:59.223Z,288.60
2023-05-16T04:12:59.239Z,272.90
2023-05-16T04:13:59.259Z,279.10
2023-05-16T04:14:59.206Z,317.80
2023-05-16T04:15:59.194Z,311.60
2023-05-16T04:16:59.174Z,285.30
2023-05-16T04:17:59.271Z,315.60
2023-05-16T04:18:59.212Z,345.00
2023-05-16T04:19:59.140Z,351.90
2023-05-16T04:20:59.129Z,363.90
2023-05-16T04:21:59.107Z,346.90
2023-05-16T04:22:59.112Z,350.20
2023-05-16T04:23:59.090Z,348.40
2023-05-16T04:24:59.073Z,339.30
2023-05-16T04:25:59.063Z,315.30
2023-05-16T04:26:59.048Z,287.90
2023-05-16T04:27:59.098Z,293.50
2023-05-16T04:29:00.206Z,289.80
2023-05-16T04:29:59.024Z,346.40
2023-05-16T04:30:59.057Z,452.20
2023-05-16T04:31:59.054Z,461.10
2023-05-16T04:32:59.038Z,446.90
2023-05-16T04:33:58.977Z,303.30
2023-05-16T04:34:58.966Z,377.40
2023-05-16T04:35:58.952Z,314.30
2023-05-16T04:36:58.970Z,403.50
2023-05-16T04:37:58.962Z,380.50
2023-05-16T04:38:58.917Z,364.40
2023-05-16T04:39:58.956Z,505.20
2023-05-16T04:40:58.910Z,257.30
2023-05-16T04:41:58.945Z,295.80
2023-05-16T04:42:58.881Z,259.80
2023-05-16T04:43:58.877Z,267.70
2023-05-16T04:44:58.856Z,270.40
2023-05-16T04:45:58.951Z,421.00
2023-05-16T04:46:58.975Z,287.10
2023-05-16T04:47:58.876Z,254.10
2023-05-16T04:48:58.799Z,244.70
2023-05-16T04:49:58.896Z,253.60
2023-05-16T04:50:58.803Z,506.20
2023-05-16T04:51:58.804Z,245.10
2023-05-16T04:52:58.788Z,222.20
2023-05-16T04:53:58.732Z,233.50
2023-05-16T04:54:58.734Z,225.20
2023-05-16T04:55:58.749Z,225.10
2023-05-16T04:56:58.714Z,247.60
2023-05-16T04:57:58.706Z,269.50
2023-05-16T04:58:58.687Z,420.20
2023-05-16T04:59:58.682Z,217.90
2023-05-16T05:01:01.695Z,304.80
2023-05-16T05:01:58.672Z,356.60
2023-05-16T05:02:58.713Z,272.30
2023-05-16T05:03:58.657Z,225.50
2023-05-16T05:04:58.750Z,282.50
2023-05-16T05:05:58.649Z,260.70
2023-05-16T05:06:58.639Z,225.20
2023-05-16T05:07:58.605Z,228.20
2023-05-16T05:08:58.589Z,251.80
2023-05-16T05:09:58.593Z,281.50
2023-05-16T05:10:58.557Z,269.10
2023-05-16T05:11:58.543Z,327.60
2023-05-16T05:12:58.538Z,340.50
2023-05-16T05:13:58.511Z,354.00
2023-05-16T05:14:58.556Z,327.00
2023-05-16T05:15:58.482Z,370.40
2023-05-16T05:16:58.515Z,337.50
2023-05-16T05:17:58.609Z,370.10
2023-05-16T05:18:58.606Z,368.00
2023-05-16T05:20:00.026Z,359.90
2023-05-16T05:20:58.461Z,361.30
2023-05-16T05:21:58.450Z,331.10
2023-05-16T05:22:58.404Z,394.70
2023-05-16T05:23:58.419Z,277.20
2023-05-16T05:24:58.454Z,347.20
2023-05-16T05:25:58.376Z,362.10
2023-05-16T05:26:58.382Z,328.60
2023-05-16T05:27:58.355Z,264.50
2023-05-16T05:29:05.113Z,258.20
2023-05-16T05:29:59.347Z,272.50
2023-05-16T05:30:58.348Z,175.90
2023-05-16T05:31:58.388Z,270.40
2023-05-16T05:32:58.357Z,180.20
2023-05-16T05:33:58.352Z,351.40
2023-05-16T05:34:58.282Z,159.50
2023-05-16T05:35:58.275Z,214.50
2023-05-16T05:36:58.246Z,160.70
2023-05-16T05:37:58.277Z,144.60
2023-05-16T05:38:58.288Z,146.10
2023-05-16T05:39:58.221Z,200.80
2023-05-16T05:40:58.237Z,145.00
2023-05-16T05:41:58.215Z,214.70
2023-05-16T05:42:58.205Z,178.40
2023-05-16T05:43:58.183Z,145.70
2023-05-16T05:44:58.179Z,168.10
2023-05-16T05:45:58.242Z,161.40
2023-05-16T05:46:58.158Z,165.70
2023-05-16T05:47:58.190Z,170.50
2023-05-16T05:48:58.130Z,135.50
2023-05-16T05:49:58.130Z,155.40
2023-05-16T05:50:58.097Z,207.10
2023-05-16T05:51:58.088Z,216.60
2023-05-16T05:52:58.103Z,220.50
2023-05-16T05:53:58.053Z,422.10
2023-05-16T05:54:58.052Z,183.30
2023-05-16T05:55:58.040Z,229.70
2023-05-16T05:56:58.079Z,236.10
2023-05-16T05:57:58.046Z,228.70
2023-05-16T05:58:58.029Z,244.70
2023-05-16T05:59:58.016Z,252.20
2023-05-16T06:00:57.986Z,246.80
2023-05-16T06:01:58.123Z,254.40
2023-05-16T06:02:58.042Z,259.70
2023-05-16T06:03:59.216Z,390.80
2023-05-16T06:04:57.972Z,158.70
2023-05-16T06:05:58.163Z,195.00
2023-05-16T06:06:57.945Z,307.90
2023-05-16T06:07:57.934Z,166.60
2023-05-16T06:08:57.933Z,207.60
2023-05-16T06:09:57.905Z,244.60
2023-05-16T06:10:57.902Z,186.70
2023-05-16T06:11:57.933Z,218.70
2023-05-16T06:12:57.855Z,215.10
2023-05-16T06:13:57.842Z,230.70
2023-05-16T06:14:57.803Z,208.80
2023-05-16T06:15:57.866Z,221.90
2023-05-16T06:16:57.851Z,234.00
2023-05-16T06:17:57.817Z,215.50
2023-05-16T06:18:57.897Z,237.30
2023-05-16T06:19:57.767Z,241.60
2023-05-16T06:20:57.775Z,220.20
2023-05-16T06:21:57.772Z,281.30
2023-05-16T06:22:57.808Z,187.70
2023-05-16T06:23:57.747Z,183.80
2023-05-16T06:24:57.742Z,177.00
2023-05-16T06:25:57.714Z,191.00
2023-05-16T06:26:57.695Z,288.00
2023-05-16T06:27:57.682Z,336.80
2023-05-16T06:28:57.661Z,155.20
2023-05-16T06:29:57.680Z,203.00
2023-05-16T06:30:57.703Z,209.70
2023-05-16T06:31:57.818Z,340.70
2023-05-16T06:32:57.682Z,168.00
2023-05-16T06:33:57.645Z,219.80
2023-05-16T06:34:57.644Z,227.80
2023-05-16T06:35:57.605Z,224.70
2023-05-16T06:36:57.586Z,209.70
2023-05-16T06:37:57.556Z,198.80
2023-05-16T06:38:57.571Z,183.70
2023-05-16T06:39:57.603Z,188.60
2023-05-16T06:40:57.527Z,180.30
2023-05-16T06:41:57.533Z,361.80
2023-05-16T06:42:57.492Z,169.60
2023-05-16T06:43:57.540Z,199.10
2023-05-16T06:44:57.509Z,286.40
2023-05-16T06:45:57.485Z,160.20
2023-05-16T06:46:57.628Z,148.40
2023-05-16T06:47:57.732Z,125.20
2023-05-16T06:48:57.471Z,118.10
2023-05-16T06:49:57.455Z,148.60
2023-05-16T06:50:57.405Z,180.90
2023-05-16T06:51:57.421Z,75.20
2023-05-16T06:52:57.424Z,108.20
2023-05-16T06:53:57.425Z,141.00
2023-05-16T06:54:57.447Z,207.20
2023-05-16T06:55:57.380Z,84.20
2023-05-16T06:56:57.351Z,95.90
2023-05-16T06:57:57.377Z,93.70
2023-05-16T06:58:57.374Z,94.90
2023-05-16T06:59:57.328Z,280.70
2023-05-16T07:00:57.368Z,69.70
2023-05-16T07:01:57.451Z,74.70
2023-05-16T07:02:57.437Z,116.50
2023-05-16T07:03:57.398Z,77.40
2023-05-16T07:04:57.271Z,90.50
2023-05-16T07:05:57.283Z,330.60
2023-05-16T07:06:57.323Z,82.10
2023-05-16T07:07:57.254Z,315.30
2023-05-16T07:08:57.280Z,69.00
2023-05-16T07:09:57.190Z,72.40
2023-05-16T07:10:57.184Z,75.10
2023-05-16T07:11:57.194Z,313.30
2023-05-16T07:12:57.231Z,57.90
2023-05-16T07:13:57.160Z,56.90
2023-05-16T07:14:57.154Z,56.70
2023-05-16T07:15:57.141Z,108.00
2023-05-16T07:16:57.196Z,52.10
2023-05-16T07:17:57.188Z,187.40
2023-05-16T07:18:57.163Z,53.30
2023-05-16T07:19:57.102Z,61.30
2023-05-16T07:20:57.089Z,61.10
2023-05-16T07:21:57.105Z,68.80
2023-05-16T07:22:57.084Z,57.80
2023-05-16T07:23:57.057Z,59.50
2023-05-16T07:24:57.044Z,281.40
2023-05-16T07:25:57.085Z,49.30
2023-05-16T07:26:57.054Z,52.00
2023-05-16T07:27:57.013Z,53.40
2023-05-16T07:28:56.998Z,250.80
2023-05-16T07:29:56.989Z,46.90
2023-05-16T07:30:57.014Z,50.80
2023-05-16T07:31:57.062Z,54.50
2023-05-16T07:33:01.531Z,57.80
2023-05-16T07:33:56.933Z,73.60
2023-05-16T07:34:56.917Z,223.90
2023-05-16T07:36:08.120Z,55.10
2023-05-16T07:36:57.918Z,52.10
2023-05-16T07:37:56.880Z,182.90
2023-05-16T07:38:56.861Z,50.60
2023-05-16T07:39:56.866Z,54.30
2023-05-16T07:40:56.896Z,54.50
2023-05-16T07:41:56.874Z,112.80
2023-05-16T07:42:56.822Z,84.80
2023-05-16T07:43:56.827Z,55.90
2023-05-16T07:44:56.879Z,349.80
2023-05-16T07:45:56.810Z,57.10
2023-05-16T07:46:56.792Z,234.50
2023-05-16T07:47:56.939Z,63.40
2023-05-16T07:48:56.771Z,59.20
2023-05-16T07:49:56.773Z,295.10
2023-05-16T07:50:56.753Z,59.90
2023-05-16T07:51:56.723Z,60.80
2023-05-16T07:52:56.696Z,59.50
2023-05-16T07:53:56.730Z,72.90
2023-05-16T07:54:56.739Z,263.60
2023-05-16T07:55:56.679Z,57.60
2023-05-16T07:56:56.660Z,61.30
2023-05-16T07:57:56.663Z,402.90
2023-05-16T07:58:56.746Z,61.00
2023-05-16T07:59:56.628Z,63.30
2023-05-16T08:00:56.624Z,126.10
2023-05-16T08:01:56.646Z,48.80
2023-05-16T08:02:56.673Z,57.50
2023-05-16T08:03:56.707Z,60.10
2023-05-16T08:04:56.668Z,64.40
2023-05-16T08:05:56.601Z,54.20
2023-05-16T08:06:56.559Z,281.70
2023-05-16T08:07:56.528Z,52.90
2023-05-16T08:08:56.542Z,67.20
2023-05-16T08:09:56.500Z,231.30
2023-05-16T08:10:56.482Z,72.00
2023-05-16T08:11:56.484Z,64.80
2023-05-16T08:12:56.533Z,63.50
2023-05-16T08:13:56.515Z,69.00
2023-05-16T08:14:56.439Z,121.50
2023-05-16T08:15:56.505Z,73.80
2023-05-16T08:16:56.411Z,72.90
2023-05-16T08:17:56.581Z,72.10
2023-05-16T08:18:56.522Z,71.60
2023-05-16T08:19:56.403Z,73.80
2023-05-16T08:20:56.408Z,71.40
2023-05-16T08:21:56.386Z,80.70
2023-05-16T08:22:56.404Z,86.90
2023-05-16T08:23:56.354Z,68.10
2023-05-16T08:24:56.354Z,78.30
2023-05-16T08:25:56.338Z,77.40
2023-05-16T08:26:56.414Z,72.80
2023-05-16T08:27:56.393Z,240.10
2023-05-16T08:28:56.341Z,48.50
2023-05-16T08:29:57.170Z,69.50
2023-05-16T08:30:56.289Z,126.20
2023-05-16T08:31:56.386Z,70.90
2023-05-16T08:32:56.310Z,108.20
2023-05-16T08:33:56.248Z,62.60
2023-05-16T08:34:56.246Z,227.00
2023-05-16T08:35:56.246Z,44.20
2023-05-16T08:36:56.256Z,53.20
2023-05-16T08:37:56.182Z,187.40
2023-05-16T08:38:56.188Z,48.60
2023-05-16T08:39:56.171Z,54.60
2023-05-16T08:40:57.079Z,95.50
2023-05-16T08:41:56.224Z,58.10
2023-05-16T08:42:56.151Z,60.40
2023-05-16T08:43:56.168Z,43.80
2023-05-16T08:44:56.161Z,255.10
2023-05-16T08:45:56.207Z,44.60
2023-05-16T08:46:56.149Z,54.50
2023-05-16T08:47:56.187Z,305.40
2023-05-16T08:48:56.099Z,50.80
2023-05-16T08:49:57.044Z,46.30
2023-05-16T08:50:56.156Z,263.50
2023-05-16T08:51:56.065Z,52.70
2023-05-16T08:52:56.067Z,130.60
2023-05-16T08:53:56.048Z,64.00
2023-05-16T08:55:09.069Z,42.30
2023-05-16T08:55:57.088Z,44.10
2023-05-16T08:56:56.004Z,198.30
2023-05-16T08:57:55.968Z,32.30
2023-05-16T08:58:55.976Z,34.20
2023-05-16T08:59:58.620Z,35.80
2023-05-16T09:00:56.053Z,184.20
2023-05-16T09:01:55.929Z,28.80
2023-05-16T09:02:55.967Z,37.30
2023-05-16T09:03:55.980Z,246.60
2023-05-16T09:04:55.972Z,37.20
2023-05-16T09:05:55.901Z,43.60
2023-05-16T09:06:55.905Z,270.40
2023-05-16T09:07:55.861Z,42.20
2023-05-16T09:08:55.888Z,41.90
2023-05-16T09:09:55.889Z,51.00
2023-05-16T09:10:55.824Z,50.70
2023-05-16T09:11:55.808Z,336.70
2023-05-16T09:12:55.845Z,40.40
2023-05-16T09:13:55.834Z,48.00
2023-05-16T09:14:55.908Z,52.10
2023-05-16T09:15:55.767Z,52.60
2023-05-16T09:16:56.473Z,37.10
2023-05-16T09:17:55.910Z,53.50
2023-05-16T09:18:55.875Z,45.50
2023-05-16T09:19:55.720Z,209.50
2023-05-16T09:20:55.724Z,35.70
2023-05-16T09:21:55.714Z,44.50
2023-05-16T09:22:55.697Z,48.20
2023-05-16T09:23:55.733Z,39.60
2023-05-16T09:24:55.667Z,181.00
2023-05-16T09:25:55.698Z,56.20
2023-05-16T09:26:55.687Z,48.60
2023-05-16T09:27:55.693Z,178.50
2023-05-16T09:28:55.714Z,109.80
2023-05-16T09:29:55.633Z,51.90
2023-05-16T09:30:55.718Z,54.20
2023-05-16T09:31:55.596Z,60.00
2023-05-16T09:32:55.628Z,62.20
2023-05-16T09:33:55.614Z,74.90
2023-05-16T09:34:55.595Z,114.60
2023-05-16T09:35:55.564Z,44.00
2023-05-16T09:36:55.582Z,58.70
2023-05-16T09:37:55.550Z,67.30
2023-05-16T09:38:55.536Z,62.50
2023-05-16T09:39:55.525Z,88.40
2023-05-16T09:40:55.536Z,49.70
2023-05-16T09:41:55.521Z,125.80
2023-05-16T09:42:55.525Z,61.80
2023-05-16T09:43:55.459Z,44.30
2023-05-16T09:44:55.466Z,174.30
2023-05-16T09:45:55.486Z,48.30
2023-05-16T09:46:55.536Z,210.10
2023-05-16T09:47:55.497Z,62.00
2023-05-16T09:48:55.416Z,112.90
2023-05-16T09:49:55.419Z,47.50
2023-05-16T09:50:56.374Z,137.80
2023-05-16T09:51:55.443Z,62.90
2023-05-16T09:52:55.369Z,41.40
2023-05-16T09:53:55.358Z,127.60
2023-05-16T09:54:55.334Z,34.20
2023-05-16T09:55:55.393Z,205.80
2023-05-16T09:56:55.362Z,41.60
2023-05-16T09:57:55.332Z,218.50
2023-05-16T09:58:55.303Z,45.00
2023-05-16T09:59:55.309Z,46.10
2023-05-16T10:00:55.316Z,165.50
2023-05-16T10:01:55.320Z,47.20
2023-05-16T10:02:55.369Z,134.70
2023-05-16T10:03:55.452Z,41.60
2023-05-16T10:04:55.235Z,53.80
2023-05-16T10:05:55.280Z,103.90
2023-05-16T10:06:55.224Z,37.60
2023-05-16T10:07:55.195Z,169.80
2023-05-16T10:08:55.214Z,32.60
2023-05-16T10:09:55.235Z,226.50
2023-05-16T10:10:55.194Z,38.30
2023-05-16T10:11:55.193Z,201.10
2023-05-16T10:12:55.126Z,33.60
2023-05-16T10:13:55.172Z,39.00
2023-05-16T10:14:55.208Z,143.20
2023-05-16T10:15:55.107Z,37.60
2023-05-16T10:16:55.115Z,215.80
2023-05-16T10:17:55.179Z,33.10
2023-05-16T10:18:55.150Z,39.70
2023-05-16T10:19:55.098Z,47.20
2023-05-16T10:20:55.033Z,211.10
2023-05-16T10:21:55.025Z,35.30
2023-05-16T10:22:55.022Z,178.30
2023-05-16T10:23:55.069Z,29.80
2023-05-16T10:24:55.062Z,145.80
2023-05-16T10:25:54.991Z,30.80
2023-05-16T10:26:55.002Z,162.40
2023-05-16T10:27:54.978Z,31.90
2023-05-16T10:28:55.006Z,185.90
2023-05-16T10:29:55.278Z,32.60
2023-05-16T10:30:54.913Z,69.50
2023-05-16T10:31:54.994Z,91.00
2023-05-16T10:32:54.921Z,74.10
2023-05-16T10:33:54.919Z,122.90
2023-05-16T10:34:54.894Z,84.40
2023-05-16T10:35:54.890Z,45.00
2023-05-16T10:36:54.881Z,36.50
2023-05-16T10:37:54.917Z,41.10
2023-05-16T10:38:54.909Z,37.80
2023-05-16T10:39:54.854Z,101.50
2023-05-16T10:40:54.835Z,50.20
2023-05-16T10:41:54.990Z,40.70
2023-05-16T10:42:54.850Z,36.90
2023-05-16T10:43:54.797Z,113.70
2023-05-16T10:45:04.965Z,37.60
2023-05-16T10:45:55.807Z,94.40
2023-05-16T10:46:54.740Z,31.80
2023-05-16T10:47:54.819Z,112.50
2023-05-16T10:48:56.511Z,36.10
2023-05-16T10:49:54.732Z,29.40
2023-05-16T10:50:54.712Z,96.10
2023-05-16T10:51:54.730Z,33.60
2023-05-16T10:52:54.758Z,69.60
2023-05-16T10:53:54.867Z,30.20
2023-05-16T10:54:54.665Z,65.20
2023-05-16T10:55:54.672Z,75.20
2023-05-16T10:56:54.689Z,31.10
2023-05-16T10:57:54.635Z,143.80
2023-05-16T10:58:54.662Z,25.90
2023-05-16T10:59:56.088Z,67.60
2023-05-16T11:00:54.631Z,118.80
2023-05-16T11:01:54.790Z,26.70
2023-05-16T11:02:54.691Z,194.20
2023-05-16T11:03:54.611Z,27.40
2023-05-16T11:04:54.578Z,32.10
2023-05-16T11:05:54.557Z,62.20
2023-05-16T11:06:54.636Z,68.80
2023-05-16T11:07:54.538Z,84.10
2023-05-16T11:08:54.527Z,65.20
2023-05-16T11:09:54.540Z,30.70
2023-05-16T11:10:54.546Z,99.20
2023-05-16T11:11:54.527Z,55.60
2023-05-16T11:12:54.455Z,73.60
2023-05-16T11:13:54.459Z,81.50
2023-05-16T11:14:54.455Z,109.60
2023-05-16T11:15:54.495Z,101.80
2023-05-16T11:16:54.500Z,31.90
2023-05-16T11:17:54.582Z,169.90
2023-05-16T11:18:54.467Z,36.60
2023-05-16T11:19:54.401Z,67.80
2023-05-16T11:20:54.392Z,133.70
2023-05-16T11:21:54.376Z,41.50
2023-05-16T11:22:54.365Z,134.80
2023-05-16T11:23:54.352Z,90.60
2023-05-16T11:24:54.394Z,60.90
2023-05-16T11:25:54.370Z,154.90
2023-05-16T11:26:54.336Z,41.90
2023-05-16T11:27:54.307Z,59.80
2023-05-16T11:28:54.282Z,88.80
2023-05-16T11:29:54.333Z,71.00
2023-05-16T11:30:54.358Z,83.10
2023-05-16T11:31:54.382Z,43.30
2023-05-16T11:32:54.234Z,48.50
2023-05-16T11:33:54.235Z,171.30
2023-05-16T11:34:54.251Z,68.60
2023-05-16T11:36:01.357Z,59.60
2023-05-16T11:36:55.222Z,147.20
2023-05-16T11:37:54.181Z,57.60
2023-05-16T11:38:54.211Z,57.10
2023-05-16T11:39:54.227Z,51.80
2023-05-16T11:40:54.127Z,52.40
2023-05-16T11:41:54.166Z,46.30
2023-05-16T11:42:54.133Z,41.60
2023-05-16T11:43:54.149Z,182.60
2023-05-16T11:44:54.111Z,27.40
2023-05-16T11:45:54.089Z,55.60
2023-05-16T11:46:54.142Z,104.30
2023-05-16T11:47:54.100Z,31.40
2023-05-16T11:48:54.086Z,101.80
2023-05-16T11:49:54.061Z,26.30
2023-05-16T11:50:54.063Z,211.10
2023-05-16T11:51:54.036Z,29.00
2023-05-16T11:52:54.453Z,138.90
2023-05-16T11:53:54.019Z,35.60
2023-05-16T11:54:53.986Z,29.90
2023-05-16T11:55:55.876Z,77.60
2023-05-16T11:56:54.018Z,75.80
2023-05-16T11:57:53.997Z,34.10
2023-05-16T11:58:53.922Z,29.60
2023-05-16T11:59:53.922Z,87.80
2023-05-16T12:00:53.924Z,34.60
2023-05-16T12:01:53.899Z,49.50
2023-05-16T12:02:54.049Z,96.20
2023-05-16T12:03:54.086Z,30.30
2023-05-16T12:04:53.906Z,30.50
2023-05-16T12:05:53.868Z,33.00
2023-05-16T12:06:53.880Z,66.70
2023-05-16T12:07:53.874Z,51.50
2023-05-16T12:08:53.817Z,28.20
2023-05-16T12:09:53.876Z,124.30
2023-05-16T12:10:53.788Z,25.50
2023-05-16T12:11:53.822Z,29.60
2023-05-16T12:12:53.780Z,147.20
2023-05-16T12:13:53.772Z,28.20
2023-05-16T12:14:53.762Z,208.90
2023-05-16T12:15:53.753Z,28.40
2023-05-16T12:16:58.320Z,82.70
2023-05-16T12:17:53.773Z,46.50
2023-05-16T12:18:53.794Z,38.50
2023-05-16T12:19:53.697Z,130.60
2023-05-16T12:20:53.710Z,30.30
2023-05-16T12:21:53.702Z,74.90
2023-05-16T12:22:53.673Z,32.10
2023-05-16T12:23:53.684Z,94.30
2023-05-16T12:24:53.667Z,28.30
2023-05-16T12:25:53.654Z,93.40
2023-05-16T12:26:53.641Z,43.60
2023-05-16T12:27:53.608Z,26.30
2023-05-16T12:28:53.605Z,27.40
2023-05-16T12:29:53.592Z,31.80
2023-05-16T12:30:53.603Z,26.40
2023-05-16T12:31:53.595Z,26.30
2023-05-16T12:32:53.721Z,76.20
2023-05-16T12:33:53.552Z,24.80
2023-05-16T12:34:53.522Z,78.50
2023-05-16T12:35:53.535Z,61.60